createdAt,value
2019-05-06T00:00:55.378Z,97260.05
2019-05-06T00:03:15.775Z,97256.16
2019-05-06T00:05:45.492Z,97254.52
2019-05-06T00:08:15.234Z,97263.34
2019-05-06T00:10:44.950Z,97256.10
2019-05-06T00:13:14.593Z,97255.45
2019-05-06T00:15:44.200Z,97261.64
2019-05-06T00:18:14.013Z,97255.41
2019-05-06T00:20:43.881Z,97257.53
2019-05-06T00:23:19.064Z,97256.14
2019-05-06T00:26:13.783Z,97256.30
2019-05-06T00:28:46.809Z,97263.95
2019-05-06T00:31:18.061Z,97263.59
2019-05-06T00:33:47.683Z,97264.03
2019-05-06T00:36:17.285Z,97257.91
2019-05-06T00:38:49.862Z,97253.34
2019-05-06T00:41:26.788Z,97256.53
2019-05-06T00:43:56.377Z,97255.34
2019-05-06T00:46:26.107Z,97258.25
2019-05-06T00:48:55.846Z,97255.27
2019-05-06T00:51:25.459Z,97256.94
2019-05-06T00:54:04.071Z,97261.41
2019-05-06T00:56:34.225Z,97259.15
2019-05-06T00:59:03.978Z,97260.77
2019-05-06T01:01:34.459Z,97260.62
2019-05-06T01:04:04.971Z,97260.29
2019-05-06T01:06:34.758Z,97262.66
2019-05-06T01:09:07.661Z,97267.21
2019-05-06T01:11:37.221Z,97264.95
2019-05-06T01:14:17.851Z,97267.10
2019-05-06T01:16:47.383Z,97270.19
2019-05-06T01:19:16.912Z,97268.42
2019-05-06T01:21:46.442Z,97267.21
2019-05-06T01:24:16.026Z,97273.02
2019-05-06T01:26:45.592Z,97271.06
2019-05-06T01:29:15.187Z,97278.82
2019-05-06T01:31:46.184Z,97276.75
2019-05-06T01:34:15.754Z,97285.11
2019-05-06T01:36:45.345Z,97290.19
2019-05-06T01:39:31.407Z,97294.14
2019-05-06T01:42:15.068Z,97294.23
2019-05-06T01:44:44.658Z,97284.62
2019-05-06T01:47:14.621Z,97298.31
2019-05-06T01:49:44.362Z,97299.75
2019-05-06T01:52:14.722Z,97302.03
2019-05-06T01:54:44.383Z,97291.41
2019-05-06T01:57:14.002Z,97298.96
2019-05-06T01:59:44.330Z,97299.99
2019-05-06T02:02:14.402Z,97298.77
2019-05-06T02:04:44.469Z,97304.16
2019-05-06T02:07:14.539Z,97303.41
2019-05-06T02:09:44.805Z,97295.65
2019-05-06T02:12:14.458Z,97300.44
2019-05-06T02:14:43.965Z,97307.52
2019-05-06T02:17:14.448Z,97305.69
2019-05-06T02:19:44.190Z,97309.88
2019-05-06T02:22:24.132Z,97306.08
2019-05-06T02:25:04.452Z,97316.20
2019-05-06T02:27:34.165Z,97308.67
2019-05-06T02:30:26.393Z,97314.34
2019-05-06T02:33:10.797Z,97312.13
2019-05-06T02:36:03.017Z,97318.70
2019-05-06T02:38:46.007Z,97310.41
2019-05-06T02:41:04.885Z,97311.52
2019-05-06T02:43:34.840Z,97315.04
2019-05-06T02:46:04.574Z,97314.65
2019-05-06T02:49:08.358Z,97313.19
2019-05-06T02:51:37.907Z,97326.09
2019-05-06T02:54:07.590Z,97332.33
2019-05-06T02:56:37.119Z,97333.82
2019-05-06T02:59:06.734Z,97330.47
2019-05-06T03:01:36.308Z,97336.37
2019-05-06T03:04:05.899Z,97335.69
2019-05-06T03:06:35.386Z,97330.61
2019-05-06T03:09:06.292Z,97331.40
2019-05-06T03:11:35.878Z,97332.52
2019-05-06T03:14:05.477Z,97334.55
2019-05-06T03:16:35.046Z,97337.08
2019-05-06T03:19:04.643Z,97337.36
2019-05-06T03:21:46.393Z,97349.49
2019-05-06T03:24:33.360Z,97344.83
2019-05-06T03:27:04.606Z,97345.53
2019-05-06T03:29:34.171Z,97346.13
2019-05-06T03:32:07.004Z,97337.30
2019-05-06T03:34:58.698Z,97342.17
2019-05-06T03:37:08.434Z,97340.91
2019-05-06T03:39:37.698Z,97348.58
2019-05-06T03:42:07.213Z,97347.35
2019-05-06T03:44:38.464Z,97348.83
2019-05-06T03:47:23.827Z,97347.25
2019-05-06T03:49:54.648Z,97351.73
2019-05-06T03:52:27.674Z,97354.34
2019-05-06T03:54:59.062Z,97354.44
2019-05-06T03:57:29.646Z,97360.11
2019-05-06T04:00:04.296Z,97352.11
2019-05-06T04:02:33.652Z,97355.73
2019-05-06T04:05:03.942Z,97357.97
2019-05-06T04:07:34.486Z,97360.61
2019-05-06T04:10:04.923Z,97366.27
2019-05-06T04:12:35.119Z,97370.11
2019-05-06T04:15:05.267Z,97369.17
2019-05-06T04:17:46.494Z,97369.44
2019-05-06T04:20:28.929Z,97374.56
2019-05-06T04:23:17.625Z,97379.25
2019-05-06T04:26:04.825Z,97375.66
2019-05-06T04:28:36.179Z,97374.52
2019-05-06T04:31:06.252Z,97383.41
2019-05-06T04:33:35.968Z,97377.34
2019-05-06T04:36:05.520Z,97386.53
2019-05-06T04:38:35.237Z,97384.26
2019-05-06T04:41:04.780Z,97387.66
2019-05-06T04:43:34.716Z,97399.75
2019-05-06T04:46:04.324Z,97401.45
2019-05-06T04:48:33.984Z,97391.08
2019-05-06T04:51:03.998Z,97401.37
2019-05-06T04:53:34.206Z,97400.12
2019-05-06T04:56:04.395Z,97395.03
2019-05-06T04:58:34.373Z,97398.82
2019-05-06T05:01:04.461Z,97402.42
2019-05-06T05:03:34.073Z,97413.58
2019-05-06T05:06:05.730Z,97404.28
2019-05-06T05:08:38.078Z,97403.30
2019-05-06T05:11:15.526Z,97403.55
2019-05-06T05:14:02.980Z,97406.02
2019-05-06T05:16:42.065Z,97407.19
2019-05-06T05:19:12.640Z,97406.10
2019-05-06T05:21:42.898Z,97401.94
2019-05-06T05:24:12.661Z,97412.33
2019-05-06T05:26:46.573Z,97417.06
2019-05-06T05:29:14.089Z,97416.47
2019-05-06T05:31:43.773Z,97419.46
2019-05-06T05:34:13.288Z,97418.49
2019-05-06T05:36:43.173Z,97430.35
2019-05-06T05:39:12.790Z,97424.61
2019-05-06T05:41:43.007Z,97425.00
2019-05-06T05:44:32.910Z,97424.05
2019-05-06T05:47:03.483Z,97425.55
2019-05-06T05:49:42.074Z,97422.25
2019-05-06T05:52:12.674Z,97424.39
2019-05-06T05:54:42.442Z,97420.16
2019-05-06T05:57:12.477Z,97421.12
2019-05-06T05:59:42.281Z,97425.30
2019-05-06T06:02:12.822Z,97425.09
2019-05-06T06:04:53.746Z,97419.66
2019-05-06T06:07:14.455Z,97424.73
2019-05-06T06:09:52.511Z,97425.77
2019-05-06T06:12:23.003Z,97429.16
2019-05-06T06:15:14.688Z,97434.75
2019-05-06T06:18:15.658Z,97444.30
2019-05-06T06:20:55.301Z,97442.41
2019-05-06T06:23:32.282Z,97435.91
2019-05-06T06:26:04.027Z,97440.13
2019-05-06T06:28:33.356Z,97445.48
2019-05-06T06:31:12.351Z,97445.03
2019-05-06T06:33:42.741Z,97440.84
2019-05-06T06:36:23.196Z,97442.04
2019-05-06T06:38:56.386Z,97446.19
2019-05-06T06:42:12.630Z,97441.44
2019-05-06T06:44:52.187Z,97444.88
2019-05-06T06:47:22.638Z,97440.66
2019-05-06T06:49:53.504Z,97437.68
2019-05-06T06:52:23.357Z,97442.16
2019-05-06T06:54:52.950Z,97440.48
2019-05-06T06:57:42.394Z,97432.05
2019-05-06T07:00:33.087Z,97439.13
2019-05-06T07:03:05.886Z,97435.77
2019-05-06T07:05:49.355Z,97438.77
2019-05-06T07:08:32.050Z,97441.13
2019-05-06T07:10:52.412Z,97438.25
2019-05-06T07:13:23.201Z,97433.78
2019-05-06T07:15:52.788Z,97436.61
2019-05-06T07:18:22.662Z,97427.69
2019-05-06T07:21:22.379Z,97430.44
2019-05-06T07:23:53.018Z,97425.80
2019-05-06T07:26:24.608Z,97424.41
2019-05-06T07:28:54.225Z,97426.19
2019-05-06T07:31:26.630Z,97425.66
2019-05-06T07:33:55.052Z,97425.45
2019-05-06T07:36:24.665Z,97428.06
2019-05-06T07:38:54.300Z,97424.97
2019-05-06T07:41:36.184Z,97428.80
2019-05-06T07:44:15.281Z,97433.31
2019-05-06T07:47:18.833Z,97420.58
2019-05-06T07:49:48.428Z,97420.20
2019-05-06T07:52:18.135Z,97419.34
2019-05-06T07:54:47.708Z,97426.83
2019-05-06T07:57:17.393Z,97428.52
2019-05-06T07:59:48.227Z,97427.58
2019-05-06T08:02:17.978Z,97423.87
2019-05-06T08:04:47.539Z,97426.42
2019-05-06T08:07:17.215Z,97415.23
2019-05-06T08:09:46.897Z,97420.26
2019-05-06T08:12:16.414Z,97418.95
2019-05-06T08:14:46.132Z,97416.73
2019-05-06T08:17:27.473Z,97416.32
2019-05-06T08:19:57.020Z,97412.50
2019-05-06T08:22:43.986Z,97416.83
2019-05-06T08:25:13.822Z,97419.70
2019-05-06T08:27:43.409Z,97415.54
2019-05-06T08:30:13.467Z,97411.98
2019-05-06T08:32:43.020Z,97410.75
2019-05-06T08:35:13.739Z,97407.89
2019-05-06T08:37:43.424Z,97411.95
2019-05-06T08:40:54.967Z,97403.96
2019-05-06T08:44:13.595Z,97405.06
2019-05-06T08:46:44.520Z,97402.97
2019-05-06T08:49:14.111Z,97403.53
2019-05-06T08:51:53.822Z,97405.92
2019-05-06T08:54:45.010Z,97399.82
2019-05-06T08:57:14.615Z,97403.33
2019-05-06T08:59:44.142Z,97396.15
2019-05-06T09:02:13.960Z,97391.68
2019-05-06T09:04:43.460Z,97401.96
2019-05-06T09:07:13.073Z,97390.24
2019-05-06T09:09:42.650Z,97399.47
2019-05-06T09:12:13.019Z,97403.53
2019-05-06T09:14:43.165Z,97399.92
2019-05-06T09:17:12.792Z,97398.84
2019-05-06T09:19:42.763Z,97397.59
2019-05-06T09:22:12.969Z,97394.48
2019-05-06T09:25:18.096Z,97399.66
2019-05-06T09:28:13.239Z,97411.03
2019-05-06T09:30:46.677Z,97399.06
2019-05-06T09:33:18.612Z,97400.59
2019-05-06T09:35:48.133Z,97408.13
2019-05-06T09:38:17.642Z,97404.08
2019-05-06T09:40:47.203Z,97402.99
2019-05-06T09:43:16.719Z,97397.48
2019-05-06T09:45:46.262Z,97402.03
2019-05-06T09:48:22.430Z,97408.72
2019-05-06T09:50:53.698Z,97403.72
2019-05-06T09:53:29.590Z,97408.35
2019-05-06T09:56:22.997Z,97406.68
2019-05-06T09:58:53.037Z,97402.63
2019-05-06T10:01:22.653Z,97407.91
2019-05-06T10:03:53.102Z,97404.90
2019-05-06T10:06:22.741Z,97408.14
2019-05-06T10:08:52.350Z,97408.71
2019-05-06T10:11:22.338Z,97408.77
2019-05-06T10:13:52.502Z,97411.42
2019-05-06T10:16:22.023Z,97416.06
2019-05-06T10:18:52.410Z,97417.01
2019-05-06T10:21:22.970Z,97412.58
2019-05-06T10:23:52.910Z,97414.00
2019-05-06T10:26:23.495Z,97420.20
2019-05-06T10:29:19.538Z,97424.03
2019-05-06T10:31:54.657Z,97424.75
2019-05-06T10:34:33.828Z,97415.67
2019-05-06T10:37:19.003Z,97421.17
2019-05-06T10:39:52.192Z,97415.08
2019-05-06T10:42:26.431Z,97414.48
2019-05-06T10:45:14.864Z,97419.27
2019-05-06T10:47:44.480Z,97417.92
2019-05-06T10:50:14.132Z,97410.73
2019-05-06T10:53:02.718Z,97419.11
2019-05-06T10:55:32.664Z,97412.30
2019-05-06T10:58:02.770Z,97412.28
2019-05-06T11:00:33.149Z,97412.13
2019-05-06T11:03:14.386Z,97416.09
2019-05-06T11:05:43.289Z,97409.45
2019-05-06T11:08:13.218Z,97407.17
2019-05-06T11:10:45.310Z,97408.97
2019-05-06T11:13:14.013Z,97409.80
2019-05-06T11:15:46.563Z,97407.27
2019-05-06T11:18:16.110Z,97407.98
2019-05-06T11:20:45.712Z,97405.95
2019-05-06T11:23:15.236Z,97401.39
2019-05-06T11:25:44.893Z,97400.18
2019-05-06T11:28:34.933Z,97383.53
2019-05-06T11:31:17.395Z,97399.57
2019-05-06T11:34:24.445Z,97401.93
2019-05-06T11:37:15.060Z,97403.13
2019-05-06T11:39:44.609Z,97404.80
2019-05-06T11:42:27.993Z,97401.33
2019-05-06T11:44:45.557Z,97411.62
2019-05-06T11:47:15.131Z,97405.87
2019-05-06T11:49:44.718Z,97402.75
2019-05-06T11:52:14.305Z,97404.27
2019-05-06T11:54:43.878Z,97396.93
2019-05-06T11:57:14.423Z,97397.64
2019-05-06T11:59:46.042Z,97408.79
2019-05-06T12:02:18.909Z,97411.73
2019-05-06T12:04:48.532Z,97408.77
2019-05-06T12:07:18.093Z,97412.75
2019-05-06T12:09:47.645Z,97416.33
2019-05-06T12:12:17.230Z,97423.27
2019-05-06T12:14:46.713Z,97426.42
2019-05-06T12:17:16.346Z,97428.09
2019-05-06T12:19:45.867Z,97430.63
2019-05-06T12:22:15.461Z,97435.55
2019-05-06T12:24:44.955Z,97428.73
2019-05-06T12:27:33.536Z,97435.33
2019-05-06T12:30:05.369Z,97438.09
2019-05-06T12:32:43.309Z,97445.88
2019-05-06T12:35:13.114Z,97446.25
2019-05-06T12:37:44.466Z,97444.94
2019-05-06T12:40:14.054Z,97444.70
2019-05-06T12:42:53.262Z,97442.20
2019-05-06T12:45:32.996Z,97443.38
2019-05-06T12:48:09.464Z,97443.99
2019-05-06T12:50:38.951Z,97445.66
2019-05-06T12:53:08.496Z,97444.58
2019-05-06T12:55:38.124Z,97445.79
2019-05-06T12:58:07.634Z,97450.45
2019-05-06T13:00:37.180Z,97449.85
2019-05-06T13:03:06.721Z,97444.94
2019-05-06T13:05:36.242Z,97446.25
2019-05-06T13:08:06.690Z,97441.46
2019-05-06T13:10:36.379Z,97438.70
2019-05-06T13:13:05.977Z,97440.63
2019-05-06T13:15:35.628Z,97445.06
2019-05-06T13:18:07.107Z,97442.06
2019-05-06T13:20:37.093Z,97448.05
2019-05-06T13:23:20.850Z,97452.84
2019-05-06T13:25:48.652Z,97453.20
2019-05-06T13:28:22.231Z,97447.59
2019-05-06T13:30:53.086Z,97438.11
2019-05-06T13:33:35.312Z,97441.10
2019-05-06T13:36:05.029Z,97438.57
2019-05-06T13:38:34.544Z,97436.03
2019-05-06T13:41:04.452Z,97433.05
2019-05-06T13:43:45.460Z,97433.14
2019-05-06T13:46:23.128Z,97435.53
2019-05-06T13:49:09.699Z,97437.94
2019-05-06T13:51:39.955Z,97437.27
2019-05-06T13:54:12.868Z,97431.41
2019-05-06T13:56:42.557Z,97431.53
2019-05-06T13:59:12.927Z,97430.05
2019-05-06T14:02:06.794Z,97422.25
2019-05-06T14:04:35.655Z,97421.03
2019-05-06T14:07:07.369Z,97422.96
2019-05-06T14:09:40.279Z,97419.63
2019-05-06T14:12:07.810Z,97417.22
2019-05-06T14:14:37.327Z,97428.41
2019-05-06T14:17:06.919Z,97418.02
2019-05-06T14:19:36.618Z,97411.70
2019-05-06T14:22:06.167Z,97406.36
2019-05-06T14:24:37.382Z,97414.18
2019-05-06T14:27:11.358Z,97416.97
2019-05-06T14:29:49.994Z,97422.22
2019-05-06T14:32:19.780Z,97418.15
2019-05-06T14:34:49.295Z,97421.19
2019-05-06T14:37:18.805Z,97419.95
2019-05-06T14:39:58.081Z,97426.16
2019-05-06T14:42:22.277Z,97423.98
2019-05-06T14:44:51.751Z,97426.11
2019-05-06T14:47:26.482Z,97428.65
2019-05-06T14:49:56.638Z,97420.50
2019-05-06T14:52:26.193Z,97426.00
2019-05-06T14:54:59.773Z,97426.24
2019-05-06T14:57:29.290Z,97430.91
2019-05-06T14:59:58.835Z,97430.47
2019-05-06T15:02:28.559Z,97434.56
2019-05-06T15:04:58.217Z,97443.42
2019-05-06T15:07:27.837Z,97445.98
2019-05-06T15:10:15.016Z,97456.98
2019-05-06T15:12:28.915Z,97455.09
2019-05-06T15:14:58.549Z,97457.42
2019-05-06T15:17:28.116Z,97457.20
2019-05-06T15:19:57.735Z,97455.30
2019-05-06T15:22:27.225Z,97450.97
2019-05-06T15:24:56.942Z,97454.02
2019-05-06T15:27:26.559Z,97453.09
2019-05-06T15:29:57.919Z,97454.69
2019-05-06T15:32:36.163Z,97467.41
2019-05-06T15:35:33.107Z,97460.95
2019-05-06T15:38:08.332Z,97446.23
2019-05-06T15:40:38.033Z,97453.77
2019-05-06T15:43:07.851Z,97454.48
2019-05-06T15:45:37.975Z,97461.30
2019-05-06T15:48:07.554Z,97462.02
2019-05-06T15:50:37.387Z,97462.27
2019-05-06T15:53:07.318Z,97467.17
2019-05-06T15:55:37.045Z,97463.23
2019-05-06T15:58:06.852Z,97456.29
2019-05-06T16:00:36.683Z,97458.95
2019-05-06T16:03:06.375Z,97466.82
2019-05-06T16:05:35.985Z,97463.23
2019-05-06T16:08:05.606Z,97457.63
2019-05-06T16:10:51.419Z,97458.20
2019-05-06T16:13:06.580Z,97463.34
2019-05-06T16:15:36.191Z,97459.12
2019-05-06T16:18:05.777Z,97462.15
2019-05-06T16:20:35.707Z,97463.22
2019-05-06T16:23:12.398Z,97459.76
2019-05-06T16:25:42.313Z,97455.81
2019-05-06T16:28:13.262Z,97461.41
2019-05-06T16:30:42.798Z,97465.00
2019-05-06T16:33:15.284Z,97466.46
2019-05-06T16:35:45.246Z,97460.95
2019-05-06T16:38:15.149Z,97459.16
2019-05-06T16:40:45.431Z,97457.16
2019-05-06T16:43:14.965Z,97457.63
2019-05-06T16:45:46.036Z,97448.39
2019-05-06T16:48:15.798Z,97455.21
2019-05-06T16:50:45.404Z,97462.03
2019-05-06T16:53:15.152Z,97457.01
2019-05-06T16:56:02.258Z,97460.58
2019-05-06T16:58:34.414Z,97459.00
2019-05-06T17:01:04.188Z,97461.74
2019-05-06T17:03:43.357Z,97466.78
2019-05-06T17:06:18.600Z,97463.95
2019-05-06T17:08:48.324Z,97465.27
2019-05-06T17:11:27.905Z,97465.98
2019-05-06T17:13:49.285Z,97471.85
2019-05-06T17:16:18.931Z,97465.27
2019-05-06T17:18:48.544Z,97463.02
2019-05-06T17:21:18.093Z,97470.78
2019-05-06T17:23:47.703Z,97466.36
2019-05-06T17:26:17.320Z,97468.22
2019-05-06T17:29:18.017Z,97476.33
2019-05-06T17:31:57.159Z,97473.24
2019-05-06T17:34:31.182Z,97471.63
2019-05-06T17:37:06.433Z,97478.98
2019-05-06T17:39:36.091Z,97470.80
2019-05-06T17:42:05.746Z,97483.88
2019-05-06T17:44:35.222Z,97478.77
2019-05-06T17:47:17.944Z,97474.15
2019-05-06T17:49:47.431Z,97482.77
2019-05-06T17:52:22.355Z,97484.83
2019-05-06T17:54:52.746Z,97488.01
2019-05-06T17:57:22.614Z,97490.33
2019-05-06T17:59:52.932Z,97490.06
2019-05-06T18:02:24.138Z,97489.69
2019-05-06T18:04:53.649Z,97493.70
2019-05-06T18:07:23.298Z,97491.72
2019-05-06T18:09:52.837Z,97493.31
2019-05-06T18:12:23.215Z,97500.50
2019-05-06T18:14:53.470Z,97501.67
2019-05-06T18:17:23.131Z,97503.88
2019-05-06T18:19:52.778Z,97503.02
2019-05-06T18:22:22.782Z,97505.27
2019-05-06T18:24:52.643Z,97503.20
2019-05-06T18:27:22.731Z,97507.77
2019-05-06T18:29:53.216Z,97508.97
2019-05-06T18:32:23.457Z,97506.53
2019-05-06T18:34:53.202Z,97517.16
2019-05-06T18:37:23.357Z,97513.69
2019-05-06T18:39:53.194Z,97517.48
2019-05-06T18:42:23.769Z,97526.26
2019-05-06T18:44:53.412Z,97529.72
2019-05-06T18:47:23.104Z,97530.99
2019-05-06T18:49:52.662Z,97536.34
2019-05-06T18:52:22.965Z,97534.96
2019-05-06T18:54:52.683Z,97545.56
2019-05-06T18:57:22.749Z,97539.97
2019-05-06T18:59:53.315Z,97544.53
2019-05-06T19:02:23.152Z,97547.98
2019-05-06T19:05:09.029Z,97556.80
2019-05-06T19:07:38.691Z,97556.91
2019-05-06T19:10:22.439Z,97560.41
2019-05-06T19:12:52.784Z,97565.23
2019-05-06T19:15:22.519Z,97568.15
2019-05-06T19:17:52.720Z,97569.72
2019-05-06T19:20:24.500Z,97571.98
2019-05-06T19:22:53.703Z,97571.09
2019-05-06T19:25:26.339Z,97573.47
2019-05-06T19:27:54.617Z,97579.03
2019-05-06T19:30:24.308Z,97578.80
2019-05-06T19:32:54.543Z,97576.08
2019-05-06T19:35:24.156Z,97578.98
2019-05-06T19:37:53.723Z,97577.77
2019-05-06T19:40:23.261Z,97580.53
2019-05-06T19:42:53.367Z,97578.12
2019-05-06T19:45:23.041Z,97575.02
2019-05-06T19:47:52.555Z,97574.58
2019-05-06T19:50:25.706Z,97566.59
2019-05-06T19:52:53.422Z,97573.55
2019-05-06T19:55:23.212Z,97581.58
2019-05-06T19:57:52.781Z,97576.23
2019-05-06T20:00:23.730Z,97570.50
2019-05-06T20:02:53.528Z,97580.32
2019-05-06T20:05:35.434Z,97582.38
2019-05-06T20:08:23.016Z,97580.59
2019-05-06T20:11:09.946Z,97585.80
2019-05-06T20:13:39.568Z,97581.26
2019-05-06T20:16:09.148Z,97585.53
2019-05-06T20:18:38.730Z,97578.06
2019-05-06T20:21:08.382Z,97583.97
2019-05-06T20:23:38.013Z,97579.59
2019-05-06T20:26:07.619Z,97577.68
2019-05-06T20:28:37.176Z,97571.96
2019-05-06T20:31:06.784Z,97580.91
2019-05-06T20:33:36.373Z,97581.73
2019-05-06T20:36:06.074Z,97576.16
2019-05-06T20:38:35.692Z,97578.16
2019-05-06T20:41:05.343Z,97574.84
2019-05-06T20:43:35.210Z,97577.84
2019-05-06T20:46:04.918Z,97577.59
2019-05-06T20:48:34.550Z,97579.31
2019-05-06T20:51:04.092Z,97578.64
2019-05-06T20:53:33.844Z,97574.17
2019-05-06T20:56:03.684Z,97570.91
2019-05-06T20:58:33.267Z,97571.11
2019-05-06T21:01:03.053Z,97571.55
2019-05-06T21:03:32.873Z,97572.16
2019-05-06T21:06:02.678Z,97567.98
2019-05-06T21:08:32.843Z,97568.69
2019-05-06T21:11:04.067Z,97560.77
2019-05-06T21:13:35.562Z,97568.86
2019-05-06T21:16:05.347Z,97563.00
2019-05-06T21:18:34.935Z,97563.58
2019-05-06T21:21:04.642Z,97562.78
2019-05-06T21:23:34.319Z,97568.53
2019-05-06T21:26:03.971Z,97568.38
2019-05-06T21:28:33.608Z,97565.36
2019-05-06T21:31:03.266Z,97562.27
2019-05-06T21:33:33.060Z,97561.09
2019-05-06T21:36:03.167Z,97561.09
2019-05-06T21:38:32.837Z,97556.59
2019-05-06T21:41:02.417Z,97559.05
2019-05-06T21:43:43.812Z,97549.34
2019-05-06T21:46:03.476Z,97559.45
2019-05-06T21:48:33.719Z,97550.34
2019-05-06T21:51:03.379Z,97550.81
2019-05-06T21:53:33.009Z,97551.02
2019-05-06T21:56:02.577Z,97549.89
2019-05-06T21:58:32.158Z,97558.64
2019-05-06T22:01:06.554Z,97555.89
2019-05-06T22:03:36.296Z,97556.69
2019-05-06T22:06:06.007Z,97554.17
2019-05-06T22:08:35.496Z,97556.92
2019-05-06T22:11:05.326Z,97558.69
2019-05-06T22:13:34.883Z,97546.09
2019-05-06T22:16:05.017Z,97556.24
2019-05-06T22:18:34.633Z,97542.31
2019-05-06T22:21:12.512Z,97535.56
2019-05-06T22:23:55.617Z,97533.17
2019-05-06T22:26:25.496Z,97531.70
2019-05-06T22:28:55.327Z,97528.38
2019-05-06T22:31:25.535Z,97527.75
2019-05-06T22:33:55.329Z,97525.53
2019-05-06T22:36:25.029Z,97528.59
2019-05-06T22:38:54.626Z,97529.10
2019-05-06T22:41:25.427Z,97534.47
2019-05-06T22:43:55.132Z,97529.88
2019-05-06T22:46:24.723Z,97545.99
2019-05-06T22:48:54.770Z,97545.69
2019-05-06T22:51:24.651Z,97537.50
2019-05-06T22:53:54.553Z,97543.95
2019-05-06T22:56:24.453Z,97552.14
2019-05-06T22:58:54.004Z,97547.78
2019-05-06T23:01:54.343Z,97543.79
2019-05-06T23:04:24.086Z,97533.98
2019-05-06T23:06:53.889Z,97539.44
2019-05-06T23:09:24.948Z,97537.93
2019-05-06T23:11:54.675Z,97539.28
2019-05-06T23:14:31.275Z,97550.66
2019-05-06T23:16:55.453Z,97548.13
2019-05-06T23:19:25.117Z,97544.56
2019-05-06T23:21:54.654Z,97550.93
2019-05-06T23:24:24.254Z,97547.55
2019-05-06T23:26:54.787Z,97539.41
2019-05-06T23:29:24.534Z,97540.25
2019-05-06T23:31:54.127Z,97549.48
2019-05-06T23:34:23.745Z,97544.29
2019-05-06T23:37:27.365Z,97543.36
2019-05-06T23:40:38.301Z,97541.17
2019-05-06T23:43:43.700Z,97543.08
2019-05-06T23:46:49.059Z,97538.31
2019-05-06T23:49:54.348Z,97541.54
2019-05-06T23:52:59.687Z,97539.16
2019-05-06T23:56:05.056Z,97535.83
2019-05-06T23:58:34.540Z,97533.50
